Time;durP1;ratioP1;P1;durP2;ratioP2;P2;SDS_P1;SDS_P2;PMS_P1;PMS_P2;Temp;Humidity;BMP_temperature;BMP_pressure;BME280_temperature;BME280_humidity;BME280_pressure;Samples;Min_cycle;Max_cycle;Signal;HPM_P1;HPM_P2
2022/12/04 06:57:01;;;;;;;50.23;34.40;;;;;;;3.96;100.00;99731.09;6219824;22;20189;-83
2022/12/04 06:59:46;;;;;;;54.00;34.83;;;;;;;3.94;100.00;99741.03;6272249;22;20199;-84
2022/12/04 07:02:32;;;;;;;52.80;34.43;;;;;;;3.98;100.00;99730.91;6250388;22;20196;-82
2022/12/04 07:05:39;;;;;;;51.27;33.33;;;;;;;4.01;100.00;99737.69;6273240;22;20172;-84
2022/12/04 08:25:51;;;;;;;61.50;35.80;;;;;;;3.72;100.00;99741.81;6232576;22;20206;-80
2022/12/04 08:28:18;;;;;;;58.93;35.90;;;;;;;3.70;100.00;99746.47;6246383;22;20649;-80
2022/12/04 08:30:44;;;;;;;55.20;32.03;;;;;;;3.75;100.00;99759.19;6246243;22;20280;-80
2022/12/04 08:33:11;;;;;;;61.63;35.97;;;;;;;3.63;100.00;99755.28;6246493;22;20247;-80
2022/12/04 08:35:38;;;;;;;60.13;33.00;;;;;;;3.64;100.00;99744.50;6246417;22;20287;-81
2022/12/04 08:38:04;;;;;;;53.67;31.63;;;;;;;3.78;100.00;99743.75;6245884;22;20233;-79
2022/12/04 08:40:32;;;;;;;54.77;33.33;;;;;;;3.79;100.00;99752.53;6263848;22;20212;-82
2022/12/04 08:43:02;;;;;;;49.53;28.00;;;;;;;3.81;100.00;99751.38;6266235;23;20212;-82
2022/12/04 08:45:29;;;;;;;50.60;27.80;;;;;;;3.70;100.00;99746.47;6265322;23;20204;-82
2022/12/04 08:47:57;;;;;;;48.57;28.20;;;;;;;3.72;100.00;99759.56;6265437;23;20215;-82
2022/12/04 08:50:26;;;;;;;53.90;28.13;;;;;;;3.64;100.00;99754.28;6288952;22;20204;-82
2022/12/04 08:52:53;;;;;;;55.47;29.83;;;;;;;3.60;100.00;99745.84;6264401;22;20227;-82
2022/12/04 08:55:23;;;;;;;46.47;28.70;;;;;;;3.54;100.00;99750.03;6263802;22;20204;-82
2022/12/04 08:57:51;;;;;;;49.60;26.87;;;;;;;3.49;100.00;99739.13;6236313;23;20266;-82
2022/12/04 09:00:19;;;;;;;42.40;25.10;;;;;;;3.53;100.00;99753.66;6199681;23;20231;-82
2022/12/04 09:02:49;;;;;;;46.87;27.10;;;;;;;3.46;100.00;99747.38;6239749;23;21608;-82
2022/12/04 09:05:19;;;;;;;44.40;26.10;;;;;;;3.37;100.00;99763.47;6241082;23;20215;-82
2022/12/04 09:07:47;;;;;;;43.13;24.27;;;;;;;3.48;100.00;99761.28;6241666;23;20213;-82
2022/12/04 09:10:15;;;;;;;40.67;23.33;;;;;;;3.47;100.00;99758.81;6214057;22;20209;-81
2022/12/04 09:12:45;;;;;;;37.23;22.27;;;;;;;3.46;100.00;99757.16;6265806;22;20237;-82
2022/12/04 09:15:14;;;;;;;38.93;22.63;;;;;;;3.50;100.00;99753.16;6264496;23;20193;-82
2022/12/04 09:17:42;;;;;;;36.87;22.27;;;;;;;3.46;100.00;99757.16;6238802;23;20665;-82
2022/12/04 09:20:10;;;;;;;34.03;21.23;;;;;;;3.57;100.00;99754.13;6188327;22;20269;-82
2022/12/04 09:22:39;;;;;;;33.40;20.83;;;;;;;3.59;100.00;99754.81;6264492;23;20209;-83
2022/12/04 09:25:27;;;;;;;33.17;20.67;;;;;;;3.44;100.00;99749.41;6222539;23;20211;-82
2022/12/04 09:27:54;;;;;;;34.90;21.70;;;;;;;3.59;100.00;99756.63;6235586;23;20668;-82
2022/12/04 09:30:22;;;;;;;31.87;20.67;;;;;;;3.60;100.00;99755.59;6258804;22;20209;-82
2022/12/04 09:32:50;;;;;;;32.20;21.00;;;;;;;3.64;100.00;99749.00;6261495;23;20216;-82
2022/12/04 09:35:17;;;;;;;33.07;20.97;;;;;;;3.57;100.00;99740.91;6260402;22;20209;-82
2022/12/04 09:37:44;;;;;;;38.03;21.47;;;;;;;3.62;100.00;99740.38;6260233;22;20263;-82
2022/12/04 09:40:27;;;;;;;35.00;20.07;;;;;;;3.72;100.00;99755.06;6210760;22;20205;-82
2022/12/04 09:43:10;;;;;;;32.47;21.03;;;;;;;3.62;100.00;99751.81;6265564;23;20268;-82
2022/12/04 09:45:52;;;;;;;29.90;19.57;;;;;;;3.57;100.00;99756.78;6218001;23;20212;-83
2022/12/04 09:48:22;;;;;;;30.57;19.73;;;;;;;3.55;100.00;99743.72;6264434;22;20212;-82
2022/12/04 09:50:49;;;;;;;31.30;19.27;;;;;;;3.53;100.00;99744.88;6265777;23;20247;-82
2022/12/04 09:53:28;;;;;;;34.80;19.80;;;;;;;3.53;100.00;99739.59;6264030;23;20209;-82
2022/12/04 09:56:26;;;;;;;32.17;19.60;;;;;;;3.47;100.00;99746.41;6236744;23;20204;-81
2022/12/04 09:59:10;;;;;;;28.20;18.20;;;;;;;3.43;100.00;99738.97;6216334;23;20205;-82
2022/12/04 10:01:49;;;;;;;30.83;18.27;;;;;;;3.43;100.00;99731.00;6256883;23;20205;-82
2022/12/04 10:04:16;;;;;;;32.57;20.13;;;;;;;3.43;100.00;99731.00;6207556;23;20248;-82
2022/12/04 10:06:53;;;;;;;31.03;18.30;;;;;;;3.46;100.00;99733.31;6209073;23;20232;-82
2022/12/04 10:09:28;;;;;;;29.37;18.80;;;;;;;3.40;100.00;99721.59;6234871;23;20216;-82
2022/12/04 10:12:06;;;;;;;31.60;19.60;;;;;;;3.36;100.00;99722.91;6208233;23;20215;-81
2022/12/04 10:14:58;;;;;;;31.47;19.47;;;;;;;3.33;100.00;99725.91;6278239;22;20727;-82
2022/12/04 10:17:25;;;;;;;32.03;19.83;;;;;;;3.30;100.00;99726.28;6252761;23;20221;-81
2022/12/04 10:20:17;;;;;;;32.73;19.20;;;;;;;3.35;100.00;99731.88;6229497;23;20205;-81
2022/12/04 10:23:12;;;;;;;33.20;21.13;;;;;;;3.40;100.00;99734.00;6230868;23;20220;-81
2022/12/04 10:25:40;;;;;;;32.23;20.17;;;;;;;3.44;100.00;99735.31;6252188;23;20264;-82
2022/12/04 10:28:26;;;;;;;32.80;20.30;;;;;;;3.57;100.00;99740.91;6257815;22;20204;-82
2022/12/04 10:30:57;;;;;;;33.57;21.83;;;;;;;3.47;100.00;99727.84;6252597;23;20201;-82
2022/12/04 10:33:46;;;;;;;32.27;19.73;;;;;;;3.38;100.00;99728.06;6245149;23;20220;-82
2022/12/04 10:36:19;;;;;;;32.30;21.17;;;;;;;3.37;100.00;99732.53;6233190;23;20209;-81
2022/12/04 10:38:53;;;;;;;35.57;21.27;;;;;;;3.39;100.00;99740.31;6236448;23;20256;-82
2022/12/04 10:41:37;;;;;;;38.57;22.93;;;;;;;3.37;100.00;99724.56;6255020;22;20233;-83
2022/12/04 10:44:05;;;;;;;35.30;22.87;;;;;;;3.36;100.00;99724.75;6234632;23;20218;-82
2022/12/04 10:46:34;;;;;;;49.67;29.70;;;;;;;3.31;100.00;99717.31;6246891;23;20204;-83
2022/12/04 10:49:27;;;;;;;42.20;26.37;;;;;;;3.36;100.00;99730.84;6245616;23;20208;-82
2022/12/04 10:51:55;;;;;;;39.60;24.93;;;;;;;3.43;100.00;99731.00;6235522;23;20305;-82
2022/12/04 10:54:57;;;;;;;43.53;26.07;;;;;;;3.36;100.00;99716.81;6213670;22;20193;-82
2022/12/04 10:57:57;;;;;;;40.53;23.40;;;;;;;3.41;100.00;99703.88;6237605;23;20204;-82
2022/12/04 11:00:31;;;;;;;40.30;22.70;;;;;;;3.36;100.00;99707.03;6228266;22;20216;-82
2022/12/04 11:03:02;;;;;;;40.67;22.70;;;;;;;3.49;100.00;99695.91;6266642;23;20207;-82
2022/12/04 11:05:35;;;;;;;40.73;24.60;;;;;;;3.46;100.00;99673.22;6269187;22;20260;-82
2022/12/04 11:08:04;;;;;;;42.13;24.03;;;;;;;3.39;100.00;99679.38;6267065;23;20218;-82
2022/12/04 11:10:42;;;;;;;43.13;26.27;;;;;;;3.54;100.00;99673.19;6212171;23;20217;-83
2022/12/04 11:13:17;;;;;;;46.10;27.30;;;;;;;3.59;100.00;99672.69;6212041;23;20225;-82
2022/12/04 11:15:50;;;;;;;44.00;24.87;;;;;;;3.68;100.00;99674.28;6250582;23;20228;-82
2022/12/04 11:18:29;;;;;;;44.43;25.57;;;;;;;3.66;100.00;99672.78;6260613;22;20217;-82
2022/12/04 11:20:59;;;;;;;46.00;25.43;;;;;;;3.67;100.00;99680.56;6242620;23;20204;-82
2022/12/04 11:23:32;;;;;;;48.13;27.57;;;;;;;3.55;100.00;99668.69;6245553;23;20223;-83
2022/12/04 11:26:00;;;;;;;47.80;27.80;;;;;;;3.57;100.00;99665.88;6218478;23;20209;-83
2022/12/04 11:28:33;;;;;;;46.27;25.33;;;;;;;3.58;100.00;99659.59;6199477;23;20237;-82
2022/12/04 11:31:14;;;;;;;48.60;27.07;;;;;;;3.61;100.00;99668.00;6223687;23;20189;-82
2022/12/04 11:33:49;;;;;;;44.93;26.73;;;;;;;3.62;100.00;99658.25;6259889;22;20213;-83
2022/12/04 11:36:23;;;;;;;41.13;23.83;;;;;;;3.61;100.00;99661.88;6214574;23;20219;-82
2022/12/04 11:39:05;;;;;;;43.93;25.47;;;;;;;3.57;100.00;99660.59;6220076;23;20204;-83
2022/12/04 11:41:34;;;;;;;44.47;27.60;;;;;;;3.62;100.00;99669.66;6252189;23;20201;-82
2022/12/04 11:44:05;;;;;;;41.77;24.57;;;;;;;3.63;100.00;99660.72;6213022;23;20260;-82
2022/12/04 11:46:34;;;;;;;43.77;25.13;;;;;;;3.58;100.00;99641.06;6220776;23;20208;-83
2022/12/04 11:49:04;;;;;;;41.07;25.27;;;;;;;3.53;100.00;99650.34;6221296;23;20227;-83
2022/12/04 11:51:37;;;;;;;48.50;29.10;;;;;;;3.50;100.00;99661.28;6242613;23;20212;-82
2022/12/04 11:54:36;;;;;;;37.73;23.43;;;;;;;3.46;100.00;99649.38;6266037;22;20239;-83
2022/12/04 11:57:30;;;;;;;35.63;23.67;;;;;;;3.55;100.00;99653.63;6264776;22;20204;-82
2022/12/04 12:00:17;;;;;;;35.20;22.83;;;;;;;3.57;100.00;99658.78;6240521;23;20211;-82
2022/12/04 12:02:59;;;;;;;35.17;22.83;;;;;;;3.67;100.00;99658.56;6206413;23;20244;-87
2022/12/04 12:05:40;;;;;;;36.60;24.47;;;;;;;3.65;100.00;99660.53;6269126;23;20236;-83
2022/12/04 12:08:34;;;;;;;39.37;25.50;;;;;;;3.64;100.00;99664.22;6268578;22;20672;-82
2022/12/04 12:11:22;;;;;;;36.67;24.40;;;;;;;3.59;100.00;99661.25;6268736;22;20232;-83
2022/12/04 12:14:23;;;;;;;37.77;25.30;;;;;;;3.58;100.00;99662.25;6245070;23;20681;-82
2022/12/04 12:17:05;;;;;;;39.23;25.80;;;;;;;3.63;100.00;99657.25;6242229;23;20204;-83
2022/12/04 12:19:58;;;;;;;39.80;25.30;;;;;;;3.59;100.00;99646.19;6269500;22;20243;-82
2022/12/04 12:22:25;;;;;;;41.37;25.57;;;;;;;3.64;100.00;99641.16;6241064;23;20200;-84
2022/12/04 12:25:18;;;;;;;40.43;25.33;;;;;;;3.54;100.00;99625.50;6269775;22;20215;-83
2022/12/04 12:28:20;;;;;;;34.70;22.73;;;;;;;3.59;100.00;99634.75;6244273;23;20239;-83
2022/12/04 12:31:00;;;;;;;36.83;23.47;;;;;;;3.51;100.00;99623.19;6233538;23;20204;-82
2022/12/04 12:33:58;;;;;;;34.40;22.13;;;;;;;3.54;100.00;99630.81;6269252;23;20262;-84
2022/12/04 12:36:31;;;;;;;35.73;23.03;;;;;;;3.53;100.00;99629.16;6229030;23;20196;-83
2022/12/04 12:39:08;;;;;;;36.83;23.93;;;;;;;3.41;100.00;99621.75;6271363;22;20205;-83
2022/12/04 12:41:42;;;;;;;38.83;23.93;;;;;;;3.46;100.00;99630.00;6269378;23;20205;-83
2022/12/04 12:48:42;;;;;;;37.57;23.13;;;;;;;3.52;100.00;99624.84;6252066;22;20215;-83
2022/12/04 12:51:38;;;;;;;36.30;23.17;;;;;;;3.40;100.00;99612.19;6268555;23;20239;-82
2022/12/04 12:54:30;;;;;;;37.67;23.10;;;;;;;3.53;100.00;99625.69;6261563;22;20212;-82
2022/12/04 12:57:06;;;;;;;37.87;23.53;;;;;;;3.41;100.00;99621.75;6195372;23;20264;-82
2022/12/04 12:59:41;;;;;;;37.50;22.03;;;;;;;3.38;100.00;99620.28;6260404;23;20209;-82
2022/12/04 13:02:33;;;;;;;40.97;23.37;;;;;;;3.45;100.00;99623.88;6212850;22;20211;-82
2022/12/04 13:05:09;;;;;;;37.83;24.03;;;;;;;3.41;100.00;99614.63;6243710;23;20215;-82
2022/12/04 13:12:04;;;;;;;35.47;21.53;;;;;;;3.30;100.00;99617.69;6269479;22;20207;-83
2022/12/04 13:14:32;;;;;;;36.17;22.63;;;;;;;3.32;100.00;99622.78;6243861;23;20205;-82
2022/12/04 13:17:13;;;;;;;36.63;21.57;;;;;;;3.33;100.00;99608.56;6244434;23;20213;-82
2022/12/04 13:19:48;;;;;;;32.50;21.47;;;;;;;3.29;100.00;99610.75;6267736;23;20231;-83
2022/12/04 13:22:42;;;;;;;32.20;20.50;;;;;;;3.31;100.00;99618.53;6217156;22;20210;-82
2022/12/04 13:25:43;;;;;;;32.33;20.93;;;;;;;3.38;100.00;99630.88;6243545;23;20252;-82
2022/12/04 13:28:39;;;;;;;34.80;20.63;;;;;;;3.24;100.00;99630.78;6244473;22;20192;-82
2022/12/04 13:31:52;;;;;;;36.20;22.30;;;;;;;3.33;100.00;99643.00;6269083;23;20245;-82
2022/12/04 13:34:57;;;;;;;33.67;20.47;;;;;;;3.38;100.00;99633.53;6181780;23;20190;-82
2022/12/04 13:37:42;;;;;;;33.20;21.23;;;;;;;3.23;100.00;99621.19;6184636;23;20206;-83
2022/12/04 13:40:38;;;;;;;35.67;23.53;;;;;;;3.24;100.00;99615.72;6207109;23;20189;-82
2022/12/04 13:43:25;;;;;;;38.07;23.03;;;;;;;3.22;100.00;99623.00;6250158;23;20211;-83
2022/12/04 13:46:04;;;;;;;35.27;22.27;;;;;;;3.29;100.00;99623.16;6248648;23;20157;-83
2022/12/04 13:48:41;;;;;;;32.63;21.07;;;;;;;3.28;100.00;99617.03;6271745;22;20205;-83
2022/12/04 13:51:35;;;;;;;33.83;21.40;;;;;;;3.31;100.00;99627.25;6244978;23;20185;-83
2022/12/04 13:54:10;;;;;;;33.43;20.97;;;;;;;3.32;100.00;99628.91;6268043;23;20152;-82
2022/12/04 13:56:40;;;;;;;35.43;21.83;;;;;;;3.14;100.00;99619.56;6266425;23;20155;-81
2022/12/04 13:59:25;;;;;;;38.27;22.83;;;;;;;3.19;100.00;99643.72;6266748;23;20184;-83
2022/12/04 14:02:21;;;;;;;38.83;23.03;;;;;;;3.17;100.00;99635.97;6270628;22;20137;-83
2022/12/04 14:05:09;;;;;;;32.60;21.00;;;;;;;3.22;100.00;99632.81;6272335;22;20141;-83
2022/12/04 14:11:59;;;;;;;35.23;21.77;;;;;;;3.14;100.00;99641.59;6273110;23;20152;-83
2022/12/04 14:14:29;;;;;;;36.17;22.70;;;;;;;3.19;100.00;99644.53;6243705;23;20204;-82
2022/12/04 14:16:58;;;;;;;40.47;23.93;;;;;;;3.24;100.00;99644.03;6243303;23;20223;-83
2022/12/04 14:19:33;;;;;;;39.23;23.50;;;;;;;3.15;100.00;99648.53;6246079;23;20255;-82
2022/12/04 14:22:01;;;;;;;36.30;21.40;;;;;;;3.19;100.00;99647.19;6269262;23;20192;-82
2022/12/04 14:24:37;;;;;;;40.73;22.47;;;;;;;3.18;100.00;99645.53;6243376;23;20208;-83
2022/12/04 14:27:32;;;;;;;41.03;23.43;;;;;;;3.23;100.00;99645.03;6269591;23;20200;-83
2022/12/04 14:30:01;;;;;;;41.10;24.47;;;;;;;3.20;100.00;99646.19;6244581;23;20209;-83
2022/12/04 14:32:33;;;;;;;43.83;25.73;;;;;;;3.13;100.00;99634.63;6243527;23;20200;-83
2022/12/04 14:35:11;;;;;;;41.37;24.67;;;;;;;3.12;100.00;99634.81;6244673;23;20204;-83
2022/12/04 14:37:50;;;;;;;41.80;25.50;;;;;;;3.20;100.00;99632.97;6242259;23;20208;-83
2022/12/04 14:40:25;;;;;;;36.53;23.30;;;;;;;3.13;100.00;99644.44;6253347;22;20188;-83
2022/12/04 14:43:01;;;;;;;43.10;25.90;;;;;;;3.05;100.00;99629.38;6227820;23;20168;-83
2022/12/04 14:45:55;;;;;;;42.90;24.60;;;;;;;3.07;100.00;99627.41;6242138;23;20209;-82
2022/12/04 14:48:54;;;;;;;39.33;23.47;;;;;;;3.14;100.00;99615.09;6267722;22;20219;-83
2022/12/04 14:51:56;;;;;;;36.97;23.03;;;;;;;3.13;100.00;99624.03;6271857;22;20196;-83
2022/12/04 14:54:42;;;;;;;34.13;24.30;;;;;;;3.16;100.00;99629.00;6245266;23;20175;-83
2022/12/04 14:57:27;;;;;;;35.93;23.47;;;;;;;3.16;100.00;99617.59;6269718;22;20152;-83
2022/12/04 14:59:55;;;;;;;34.37;23.20;;;;;;;3.16;100.00;99620.25;6267760;23;20165;-82
2022/12/04 15:02:39;;;;;;;32.80;22.17;;;;;;;3.18;100.00;99619.06;6244959;23;20176;-82
2022/12/04 15:05:10;;;;;;;34.13;22.03;;;;;;;3.19;100.00;99614.59;6248230;22;20188;-83
2022/12/04 15:07:48;;;;;;;31.97;22.07;;;;;;;3.17;100.00;99621.91;6274087;22;20157;-83
2022/12/04 15:13:31;;;;;;;27.63;19.37;;;;;;;3.15;100.00;99616.75;6272758;22;20171;-82
2022/12/04 15:16:15;;;;;;;26.77;19.47;;;;;;;3.06;100.00;99613.34;6271828;23;20152;-82
2022/12/04 15:18:54;;;;;;;25.93;19.30;;;;;;;3.18;100.00;99618.22;6219740;23;20590;-83
2022/12/04 15:21:29;;;;;;;27.30;19.73;;;;;;;3.07;100.00;99611.53;6245014;23;20590;-83
2022/12/04 15:23:58;;;;;;;28.73;19.83;;;;;;;3.20;100.00;99621.53;6197152;23;20168;-82
2022/12/04 15:26:25;;;;;;;25.50;19.27;;;;;;;3.20;100.00;99606.50;6245584;23;20185;-83
2022/12/04 15:28:58;;;;;;;29.03;20.10;;;;;;;3.21;100.00;99618.72;6270893;23;20165;-83
2022/12/04 15:31:38;;;;;;;28.07;20.47;;;;;;;3.15;100.00;99613.28;6246743;23;20183;-83
2022/12/04 15:34:12;;;;;;;32.50;22.97;;;;;;;3.09;100.00;99617.44;6245605;23;20225;-83
2022/12/04 15:36:44;;;;;;;31.40;23.57;;;;;;;3.10;100.00;99619.94;6270674;23;20216;-83
2022/12/04 15:39:27;;;;;;;29.40;21.37;;;;;;;3.08;100.00;99621.91;6247317;23;20152;-83
2022/12/04 15:42:37;;;;;;;28.40;19.53;;;;;;;3.09;100.00;99614.81;6272485;23;20237;-83
2022/12/04 15:45:08;;;;;;;28.53;20.57;;;;;;;3.12;100.00;99625.06;6255049;23;20165;-83
2022/12/04 15:47:52;;;;;;;30.07;21.87;;;;;;;3.09;100.00;99625.38;6271460;23;20165;-83
2022/12/04 15:50:25;;;;;;;32.17;22.50;;;;;;;3.12;100.00;99625.06;6246129;23;20161;-83
2022/12/04 15:53:05;;;;;;;35.23;23.87;;;;;;;3.09;100.00;99626.22;6268622;22;20181;-82
2022/12/04 15:55:45;;;;;;;36.47;24.13;;;;;;;3.10;100.00;99606.69;6266711;23;20169;-82
2022/12/04 15:58:30;;;;;;;25.87;19.20;;;;;;;3.15;100.00;99618.59;6194455;23;20187;-82
2022/12/04 16:01:06;;;;;;;28.83;19.17;;;;;;;3.09;100.00;99618.28;6215922;23;20211;-83
2022/12/04 16:03:58;;;;;;;26.37;19.27;;;;;;;3.21;100.00;99620.56;6268511;23;20145;-83
2022/12/04 16:06:31;;;;;;;31.43;22.97;;;;;;;3.10;100.00;99627.03;6243570;23;20169;-83
2022/12/04 16:09:23;;;;;;;34.20;24.93;;;;;;;3.03;100.00;99628.75;6272564;22;20149;-83
2022/12/04 16:12:03;;;;;;;28.00;21.87;;;;;;;3.16;100.00;99629.00;6269276;23;20165;-82
2022/12/04 16:14:33;;;;;;;25.17;19.40;;;;;;;3.18;100.00;99634.13;6245979;23;20188;-83
2022/12/04 16:17:01;;;;;;;29.80;22.73;;;;;;;3.24;100.00;99625.50;6270047;22;20164;-83
2022/12/04 16:19:40;;;;;;;27.93;20.97;;;;;;;3.08;100.00;99621.09;6246759;23;20180;-82
2022/12/04 16:22:15;;;;;;;28.37;22.30;;;;;;;3.23;100.00;99632.59;6270680;23;20213;-82
2022/12/04 16:24:47;;;;;;;24.40;19.57;;;;;;;3.12;100.00;99622.41;6270334;23;20180;-83
2022/12/04 16:27:21;;;;;;;22.60;17.57;;;;;;;3.25;100.00;99633.28;6264900;23;20188;-82
2022/12/04 16:29:50;;;;;;;21.67;17.53;;;;;;;3.06;100.00;99631.88;6264673;23;20176;-83
2022/12/04 16:32:23;;;;;;;19.77;15.87;;;;;;;3.16;100.00;99631.66;6245323;23;20164;-83
2022/12/04 16:34:50;;;;;;;22.00;17.67;;;;;;;3.16;100.00;99644.06;6239539;23;20149;-83
2022/12/04 16:37:19;;;;;;;21.23;16.47;;;;;;;3.22;100.00;99638.91;6215273;23;20555;-83
2022/12/04 16:39:48;;;;;;;24.23;20.73;;;;;;;3.17;100.00;99640.44;6244927;23;20204;-83
2022/12/04 16:46:33;;;;;;;32.13;28.53;;;;;;;3.18;100.00;99650.84;6275762;22;20144;-83
2022/12/04 16:49:10;;;;;;;24.50;19.77;;;;;;;3.18;100.00;99642.88;6273015;23;20211;-83
2022/12/04 16:51:48;;;;;;;24.67;20.13;;;;;;;3.21;100.00;99647.84;6272145;22;20219;-84
2022/12/04 16:54:20;;;;;;;23.73;20.67;;;;;;;3.10;100.00;99648.22;6245884;23;20168;-83
2022/12/04 16:56:51;;;;;;;23.57;18.97;;;;;;;3.14;100.00;99636.28;6271510;23;20208;-83
2022/12/04 16:59:18;;;;;;;20.80;16.80;;;;;;;3.16;100.00;99631.66;6237518;22;20184;-83
2022/12/04 17:01:50;;;;;;;22.90;19.17;;;;;;;3.15;100.00;99634.47;6271713;23;20240;-83
2022/12/04 17:04:41;;;;;;;21.47;19.10;;;;;;;3.18;100.00;99629.66;6206258;23;20192;-83
2022/12/04 17:07:33;;;;;;;22.77;18.83;;;;;;;3.22;100.00;99653.97;6254171;22;20232;-83
2022/12/04 17:10:08;;;;;;;19.87;17.37;;;;;;;3.10;100.00;99643.75;6274767;22;20164;-84
2022/12/04 17:12:40;;;;;;;22.00;17.90;;;;;;;3.18;100.00;99658.78;6273062;23;20192;-84
2022/12/04 17:15:14;;;;;;;21.90;18.10;;;;;;;3.18;100.00;99652.66;6273036;22;20157;-83
2022/12/04 17:17:52;;;;;;;20.27;17.97;;;;;;;3.17;100.00;99648.38;6273120;23;20153;-84
2022/12/04 17:20:30;;;;;;;20.50;17.37;;;;;;;3.19;100.00;99654.31;6225549;23;20192;-84
2022/12/04 17:23:11;;;;;;;20.33;17.93;;;;;;;3.30;100.00;99649.47;6250644;22;20180;-84
2022/12/04 17:26:12;;;;;;;21.03;16.70;;;;;;;3.30;100.00;99651.28;6273580;23;20211;-84
2022/12/04 17:28:56;;;;;;;20.13;17.30;;;;;;;3.13;100.00;99645.22;6252237;23;20172;-84
2022/12/04 17:31:52;;;;;;;21.87;18.50;;;;;;;3.23;100.00;99640.56;6268070;23;20172;-83
2022/12/04 17:35:20;;;;;;;22.87;19.17;;;;;;;3.16;100.00;99642.25;6273849;22;20145;-84
2022/12/04 23:35:37;;;;;;;18.37;12.47;;;;;;;3.67;100.00;99365.28;6263563;22;20203;-83
2022/12/04 23:38:11;;;;;;;20.33;13.57;;;;;;;3.80;100.00;99356.69;6253342;22;20195;-80
2022/12/04 23:40:47;;;;;;;18.67;13.77;;;;;;;3.75;100.00;99361.72;6303825;22;20225;-83
2022/12/04 23:43:21;;;;;;;17.80;13.00;;;;;;;3.72;100.00;99364.72;6277941;22;20188;-83
2022/12/04 23:46:03;;;;;;;17.50;12.10;;;;;;;3.76;100.00;99373.97;6301879;22;20201;-83
2022/12/04 23:48:38;;;;;;;15.70;10.87;;;;;;;3.80;100.00;99377.88;6254795;22;20148;-83
2022/12/04 23:51:15;;;;;;;18.37;12.93;;;;;;;3.70;100.00;99374.69;6248604;22;20152;-83
2022/12/04 23:53:47;;;;;;;21.57;13.80;;;;;;;3.77;100.00;99376.44;6245358;22;20266;-82
2022/12/04 23:56:26;;;;;;;19.27;13.83;;;;;;;3.77;100.00;99370.31;6274810;22;20203;-82
2022/12/04 23:59:01;;;;;;;17.27;12.90;;;;;;;3.64;100.00;99360.31;6275533;22;20592;-83
